Time,TemperatureF,DewpointF,PressureIn,WindDirection,WindDirectionDegrees,WindSpeedMPH,WindSpeedGustMPH,Humidity,HourlyPrecipIn,Conditions,Clouds,dailyrainin,SolarRadiationWatts/m^2,SoftwareType,DateUTC
2013-02-15 00:01:00,22.0,20.0,-100.00,North,-999,-999.0,0.0,90,0.00,,,-99.99,0.000000,,2013-02-15 07:01:00,
2013-02-15 00:11:00,22.0,20.0,-100.00,North,-999,-999.0,0.0,91,0.00,,,-99.99,0.000000,,2013-02-15 07:11:00,
2013-02-15 00:21:00,22.0,20.0,-100.00,North,-999,-999.0,0.0,92,0.00,,,-99.99,0.000000,,2013-02-15 07:21:00,
2013-02-15 00:31:00,22.0,20.0,-100.00,South,169,0.0,2.0,91,0.00,,,-99.99,0.000000,,2013-02-15 07:31:00,
2013-02-15 00:41:00,23.0,21.0,-100.00,South,172,1.0,3.0,92,0.00,,,-99.99,0.000000,,2013-02-15 07:41:00,
2013-02-15 00:52:00,23.0,21.0,-100.00,South,172,1.0,3.0,92,0.00,,,-99.99,0.000000,,2013-02-15 07:52:00,
2013-02-15 01:01:00,22.0,19.0,-100.00,North,-999,-999.0,0.0,89,0.00,,,-99.99,0.000000,,2013-02-15 08:01:00,
2013-02-15 01:11:00,21.0,18.0,-100.00,North,-999,-999.0,0.0,90,0.00,,,-99.99,0.000000,,2013-02-15 08:11:00,
2013-02-15 01:21:00,20.0,18.0,-100.00,North,-999,-999.0,0.0,90,0.00,,,-99.99,0.000000,,2013-02-15 08:21:00,
2013-02-15 01:31:00,20.0,17.0,-100.00,North,-999,-999.0,0.0,91,0.00,,,-99.99,0.000000,,2013-02-15 08:31:00,
2013-02-15 01:41:00,19.0,17.0,-100.00,North,-999,-999.0,0.0,92,0.00,,,-99.99,0.000000,,2013-02-15 08:41:00,
2013-02-15 01:52:00,19.0,17.0,-100.00,North,-999,-999.0,0.0,92,0.00,,,-99.99,0.000000,,2013-02-15 08:52:00,
2013-02-15 02:01:00,19.0,17.0,-100.00,North,-999,-999.0,0.0,92,0.00,,,-99.99,0.000000,,2013-02-15 09:01:00,
2013-02-15 02:12:00,19.0,17.0,-100.00,South,178,1.0,3.0,93,0.00,,,-99.99,0.000000,,2013-02-15 09:12:00,
2013-02-15 02:21:00,19.0,17.0,-100.00,North,-999,-999.0,0.0,93,0.00,,,-99.99,0.000000,,2013-02-15 09:21:00,
2013-02-15 02:31:00,18.0,17.0,-100.00,North,-999,-999.0,0.0,92,0.00,,,-99.99,0.000000,,2013-02-15 09:31:00,
2013-02-15 02:41:00,18.0,16.0,-100.00,SSE,154,0.0,1.0,92,0.00,,,-99.99,0.000000,,2013-02-15 09:41:00,
2013-02-15 02:50:00,23.0,21.0,-100.00,SSW,205,2.0,5.0,93,0.00,,,-99.99,0.000000,,2013-02-15 09:50:00,
2013-02-15 02:51:00,18.0,17.0,-100.00,SW,222,2.0,3.0,93,0.00,,,-99.99,0.000000,,2013-02-15 09:51:00,
2013-02-15 03:01:00,20.0,19.0,-100.00,SSW,209,1.0,5.0,96,0.00,,,-99.99,0.000000,,2013-02-15 10:01:00,
2013-02-15 03:11:00,23.0,21.0,-100.00,SSW,205,2.0,5.0,93,0.00,,,-99.99,0.000000,,2013-02-15 10:11:00,
2013-02-15 03:21:00,23.0,21.0,-100.00,SSW,205,2.0,5.0,93,0.00,,,-99.99,0.000000,,2013-02-15 10:21:00,
2013-02-15 03:31:00,23.0,21.0,-100.00,SSW,205,2.0,5.0,93,0.00,,,-99.99,0.000000,,2013-02-15 10:31:00,
2013-02-15 03:41:00,23.0,21.0,-100.00,SSW,205,2.0,5.0,93,0.00,,,-99.99,0.000000,,2013-02-15 10:41:00,
2013-02-15 04:23:00,23.0,20.0,-100.00,SSE,154,5.0,8.0,90,0.00,,,-99.99,0.000000,,2013-02-15 11:23:00,
2013-02-15 04:32:00,23.0,20.0,-100.00,SSE,160,4.0,6.0,89,0.00,,,-99.99,0.000000,,2013-02-15 11:32:00,
2013-02-15 04:42:00,23.0,20.0,-100.00,South,191,2.0,5.0,89,0.00,,,-99.99,0.000000,,2013-02-15 11:42:00,
2013-02-15 04:52:00,23.0,21.0,-100.00,SSW,194,3.0,5.0,89,0.00,,,-99.99,0.000000,,2013-02-15 11:52:00,
2013-02-15 05:01:00,23.0,19.0,-100.00,SSE,150,1.0,5.0,85,0.00,,,-99.99,0.000000,,2013-02-15 12:01:00,
2013-02-15 05:11:00,20.0,16.0,-100.00,NE,46,1.0,4.0,83,0.00,,,-99.99,0.000000,,2013-02-15 12:11:00,
2013-02-15 05:21:00,19.0,16.0,-100.00,ESE,117,1.0,3.0,88,0.00,,,-99.99,0.000000,,2013-02-15 12:21:00,
2013-02-15 05:31:00,18.0,15.0,-100.00,North,-999,-999.0,0.0,88,0.00,,,-99.99,0.000000,,2013-02-15 12:31:00,
2013-02-15 05:42:00,17.0,15.0,-100.00,North,-999,-999.0,0.0,90,0.00,,,-99.99,0.000000,,2013-02-15 12:42:00,
2013-02-15 05:52:00,16.0,14.0,-100.00,North,-999,-999.0,0.0,90,0.00,,,-99.99,0.000000,,2013-02-15 12:52:00,
2013-02-15 06:02:00,16.0,14.0,-100.00,WSW,257,0.0,3.0,92,0.00,,,-99.99,0.000000,,2013-02-15 13:02:00,
2013-02-15 06:11:00,16.0,14.0,-100.00,West,270,1.0,3.0,92,0.00,,,-99.99,0.000000,,2013-02-15 13:11:00,
2013-02-15 06:21:00,16.0,14.0,-100.00,SSE,161,2.0,4.0,93,0.00,,,-99.99,0.000000,,2013-02-15 13:21:00,
2013-02-15 06:31:00,16.0,14.0,-100.00,SE,143,1.0,4.0,92,0.00,,,-99.99,0.000000,,2013-02-15 13:31:00,
2013-02-15 06:41:00,18.0,16.0,-100.00,SSE,158,3.0,6.0,92,0.00,,,-99.99,0.000000,,2013-02-15 13:41:00,
2013-02-15 06:51:00,18.0,16.0,-100.00,South,174,3.0,6.0,92,0.00,,,-99.99,0.000000,,2013-02-15 13:51:00,
2013-02-15 07:01:00,20.0,18.0,-100.00,SSE,166,3.0,5.0,92,0.00,,,-99.99,0.000000,,2013-02-15 14:01:00,
2013-02-15 07:11:00,22.0,19.0,-100.00,SSE,161,3.0,5.0,91,0.00,,,-99.99,0.000000,,2013-02-15 14:11:00,
2013-02-15 07:21:00,22.0,19.0,-100.00,SSW,203,1.0,3.0,89,0.00,,,-99.99,0.000000,,2013-02-15 14:21:00,
2013-02-15 07:32:00,22.0,19.0,-100.00,South,185,2.0,5.0,89,0.00,,,-99.99,1.000000,,2013-02-15 14:32:00,
2013-02-15 07:41:00,22.0,18.0,-100.00,SSE,159,4.0,7.0,85,0.00,,,-99.99,4.000000,,2013-02-15 14:41:00,
2013-02-15 07:50:00,21.0,19.0,-100.00,SSW,207,0.0,2.0,90,0.00,,,-99.99,22.000000,,2013-02-15 14:50:00,
2013-02-15 07:52:00,20.0,17.0,-100.00,SSE,155,5.0,7.0,87,0.00,,,-99.99,8.000000,,2013-02-15 14:52:00,
2013-02-15 08:01:00,21.0,19.0,-100.00,SSE,159,4.0,7.0,90,0.00,,,-99.99,14.000000,,2013-02-15 15:01:00,
2013-02-15 08:11:00,21.0,19.0,-100.00,SSW,207,0.0,2.0,90,0.00,,,-99.99,22.000000,,2013-02-15 15:11:00,
2013-02-15 08:21:00,21.0,19.0,-100.00,SSW,207,0.0,2.0,90,0.00,,,-99.99,22.000000,,2013-02-15 15:21:00,
2013-02-15 08:32:00,21.0,19.0,-100.00,SSW,207,0.0,2.0,90,0.00,,,-99.99,22.000000,,2013-02-15 15:32:00,
2013-02-15 08:41:00,21.0,19.0,-100.00,SSW,207,0.0,2.0,90,0.00,,,-99.99,22.000000,,2013-02-15 15:41:00,
2013-02-15 09:22:00,23.0,18.0,-100.00,North,-999,-999.0,0.0,79,0.00,,,-99.99,263.000000,,2013-02-15 16:22:00,
2013-02-15 09:32:00,24.0,18.0,-100.00,North,-999,-999.0,0.0,80,0.00,,,-99.99,292.000000,,2013-02-15 16:32:00,
2013-02-15 09:43:00,24.0,19.0,-100.00,SSE,165,0.0,2.0,79,0.00,,,-99.99,320.000000,,2013-02-15 16:43:00,
2013-02-15 09:52:00,27.0,19.0,-100.00,SSW,195,0.0,2.0,73,0.00,,,-99.99,356.000000,,2013-02-15 16:52:00,
2013-02-15 10:01:00,28.0,20.0,-100.00,North,-999,-999.0,0.0,71,0.00,,,-99.99,418.000000,,2013-02-15 17:01:00,
2013-02-15 10:11:00,28.0,19.0,-100.00,North,-999,-999.0,0.0,69,0.00,,,-99.99,446.000000,,2013-02-15 17:11:00,
2013-02-15 10:21:00,30.0,20.0,-100.00,North,-999,-999.0,0.0,66,0.00,,,-99.99,279.000000,,2013-02-15 17:21:00,
2013-02-15 10:31:00,31.0,21.0,-100.00,North,-999,-999.0,0.0,66,0.00,,,-99.99,494.000000,,2013-02-15 17:31:00,
2013-02-15 10:41:00,31.0,20.0,-100.00,ESE,113,0.0,3.0,63,0.00,,,-99.99,283.000000,,2013-02-15 17:41:00,
2013-02-15 10:52:00,29.0,20.0,-100.00,North,-999,-999.0,0.0,68,0.00,,,-99.99,478.000000,,2013-02-15 17:52:00,
2013-02-15 11:01:00,30.0,20.0,-100.00,North,-999,-999.0,0.0,66,0.00,,,-99.99,564.000000,,2013-02-15 18:01:00,
2013-02-15 11:11:00,30.0,20.0,-100.00,North,-999,-999.0,0.0,64,0.00,,,-99.99,585.000000,,2013-02-15 18:11:00,
2013-02-15 11:21:00,32.0,21.0,-100.00,ESE,114,0.0,3.0,62,0.00,,,-99.99,606.000000,,2013-02-15 18:21:00,
2013-02-15 11:31:00,35.0,20.0,-100.00,SSE,166,1.0,5.0,55,0.00,,,-99.99,625.000000,,2013-02-15 18:31:00,
2013-02-15 11:41:00,34.0,20.0,-100.00,SSW,203,4.0,7.0,56,0.00,,,-99.99,639.000000,,2013-02-15 18:41:00,
2013-02-15 11:52:00,36.0,22.0,-100.00,South,186,4.0,7.0,58,0.00,,,-99.99,621.000000,,2013-02-15 18:52:00,
2013-02-15 12:01:00,36.0,22.0,-100.00,South,176,3.0,7.0,56,0.00,,,-99.99,665.000000,,2013-02-15 19:01:00,
2013-02-15 12:11:00,36.0,22.0,-100.00,SSW,192,2.0,5.0,56,0.00,,,-99.99,676.000000,,2013-02-15 19:11:00,
2013-02-15 12:21:00,34.0,22.0,-100.00,SW,225,3.0,6.0,61,0.00,,,-99.99,682.000000,,2013-02-15 19:21:00,
2013-02-15 12:31:00,33.0,22.0,-100.00,South,179,3.0,6.0,62,0.00,,,-99.99,691.000000,,2013-02-15 19:31:00,
2013-02-15 12:41:00,33.0,23.0,-100.00,East,90,3.0,6.0,65,0.00,,,-99.99,636.000000,,2013-02-15 19:41:00,
2013-02-15 12:50:00,34.0,23.0,-100.00,SSE,154,2.0,6.0,64,0.00,,,-99.99,698.000000,,2013-02-15 19:50:00,
2013-02-15 12:51:00,32.0,23.0,-100.00,NE,56,4.0,6.0,67,0.00,,,-99.99,696.000000,,2013-02-15 19:51:00,
2013-02-15 13:01:00,34.0,23.0,-100.00,ENE,69,4.0,6.0,64,0.00,,,-99.99,698.000000,,2013-02-15 20:01:00,
2013-02-15 13:11:00,34.0,23.0,-100.00,SSE,154,2.0,6.0,64,0.00,,,-99.99,698.000000,,2013-02-15 20:11:00,
2013-02-15 13:21:00,34.0,23.0,-100.00,SSE,154,2.0,6.0,64,0.00,,,-99.99,698.000000,,2013-02-15 20:21:00,
2013-02-15 13:32:00,34.0,23.0,-100.00,SSE,154,2.0,6.0,64,0.00,,,-99.99,698.000000,,2013-02-15 20:32:00,
2013-02-15 13:42:00,34.0,23.0,-100.00,SSE,154,2.0,6.0,64,0.00,,,-99.99,698.000000,,2013-02-15 20:42:00,
2013-02-15 14:22:00,37.0,23.0,-100.00,WSW,239,2.0,4.0,57,0.00,,,-99.99,512.000000,,2013-02-15 21:22:00,
2013-02-15 14:32:00,37.0,23.0,-100.00,West,260,1.0,4.0,57,0.00,,,-99.99,544.000000,,2013-02-15 21:32:00,
2013-02-15 14:42:00,37.0,23.0,-100.00,WNW,284,2.0,4.0,56,0.00,,,-99.99,613.000000,,2013-02-15 21:42:00,
2013-02-15 14:52:00,38.0,23.0,-100.00,SW,219,1.0,4.0,54,0.00,,,-99.99,520.000000,,2013-02-15 21:52:00,
2013-02-15 15:01:00,38.0,22.0,-100.00,SSW,206,0.0,3.0,53,0.00,,,-99.99,254.000000,,2013-02-15 22:01:00,
2013-02-15 15:11:00,38.0,23.0,-100.00,SSE,165,2.0,4.0,53,0.00,,,-99.99,543.000000,,2013-02-15 22:11:00,
2013-02-15 15:21:00,38.0,23.0,-100.00,SSE,157,3.0,5.0,53,0.00,,,-99.99,531.000000,,2013-02-15 22:21:00,
2013-02-15 15:31:00,38.0,23.0,-100.00,SSW,195,2.0,5.0,53,0.00,,,-99.99,510.000000,,2013-02-15 22:31:00,
2013-02-15 15:41:00,38.0,22.0,-100.00,SSW,209,3.0,5.0,51,0.00,,,-99.99,483.000000,,2013-02-15 22:41:00,
2013-02-15 15:51:00,39.0,23.0,-100.00,WNW,299,1.0,4.0,53,0.00,,,-99.99,458.000000,,2013-02-15 22:51:00,
2013-02-15 16:02:00,39.0,22.0,-100.00,North,-999,-999.0,0.0,50,0.00,,,-99.99,427.000000,,2013-02-15 23:02:00,
2013-02-15 16:11:00,39.0,22.0,-100.00,North,-999,-999.0,0.0,50,0.00,,,-99.99,403.000000,,2013-02-15 23:11:00,
2013-02-15 16:21:00,39.0,22.0,-100.00,North,-999,-999.0,0.0,49,0.00,,,-99.99,356.000000,,2013-02-15 23:21:00,
2013-02-15 16:31:00,39.0,22.0,-100.00,North,-999,-999.0,0.0,49,0.00,,,-99.99,116.000000,,2013-02-15 23:31:00,
2013-02-15 16:41:00,38.0,21.0,-100.00,North,-999,-999.0,0.0,50,0.00,,,-99.99,304.000000,,2013-02-15 23:41:00,
2013-02-15 16:52:00,38.0,21.0,-100.00,North,-999,-999.0,0.0,52,0.00,,,-99.99,272.000000,,2013-02-15 23:52:00,
2013-02-15 17:01:00,38.0,22.0,-100.00,North,-999,-999.0,0.0,53,0.00,,,-99.99,236.000000,,2013-02-16 00:01:00,
2013-02-15 17:11:00,38.0,22.0,-100.00,North,-999,-999.0,0.0,53,0.00,,,-99.99,205.000000,,2013-02-16 00:11:00,
2013-02-15 17:21:00,37.0,22.0,-100.00,North,-999,-999.0,0.0,53,0.00,,,-99.99,159.000000,,2013-02-16 00:21:00,
2013-02-15 17:31:00,37.0,22.0,-100.00,North,-999,-999.0,0.0,54,0.00,,,-99.99,118.000000,,2013-02-16 00:31:00,
2013-02-15 17:41:00,37.0,22.0,-100.00,North,-999,-999.0,0.0,53,0.00,,,-99.99,109.000000,,2013-02-16 00:41:00,
2013-02-15 17:50:00,33.0,23.0,-100.00,North,-999,-999.0,0.0,65,0.00,,,-99.99,20.000000,,2013-02-16 00:50:00,
2013-02-15 17:51:00,37.0,23.0,-100.00,North,-999,-999.0,0.0,57,0.00,,,-99.99,44.000000,,2013-02-16 00:51:00,
2013-02-15 18:02:00,35.0,23.0,-100.00,North,-999,-999.0,0.0,60,0.00,,,-99.99,24.000000,,2013-02-16 01:02:00,
2013-02-15 18:11:00,33.0,23.0,-100.00,North,-999,-999.0,0.0,65,0.00,,,-99.99,20.000000,,2013-02-16 01:11:00,
2013-02-15 18:21:00,33.0,23.0,-100.00,North,-999,-999.0,0.0,65,0.00,,,-99.99,20.000000,,2013-02-16 01:21:00,
2013-02-15 18:31:00,33.0,23.0,-100.00,North,-999,-999.0,0.0,65,0.00,,,-99.99,20.000000,,2013-02-16 01:31:00,
2013-02-15 18:41:00,33.0,23.0,-100.00,North,-999,-999.0,0.0,65,0.00,,,-99.99,20.000000,,2013-02-16 01:41:00,
2013-02-15 19:22:00,27.0,22.0,-100.00,North,-999,-999.0,0.0,79,0.00,,,-99.99,0.000000,,2013-02-16 02:22:00,
2013-02-15 19:32:00,27.0,21.0,-100.00,North,-999,-999.0,0.0,79,0.00,,,-99.99,0.000000,,2013-02-16 02:32:00,
2013-02-15 19:42:00,26.0,21.0,-100.00,North,-999,-999.0,0.0,80,0.00,,,-99.99,0.000000,,2013-02-16 02:42:00,
2013-02-15 19:52:00,26.0,21.0,-100.00,North,-999,-999.0,0.0,81,0.00,,,-99.99,0.000000,,2013-02-16 02:52:00,
2013-02-15 20:01:00,25.0,21.0,-100.00,SSW,202,1.0,4.0,84,0.00,,,-99.99,0.000000,,2013-02-16 03:01:00,
2013-02-15 20:11:00,26.0,21.0,-100.00,SSW,208,1.0,3.0,82,0.00,,,-99.99,0.000000,,2013-02-16 03:11:00,
2013-02-15 20:21:00,26.0,21.0,-100.00,North,-999,-999.0,0.0,82,0.00,,,-99.99,0.000000,,2013-02-16 03:21:00,
2013-02-15 20:31:00,26.0,21.0,-100.00,SSW,201,1.0,4.0,83,0.00,,,-99.99,0.000000,,2013-02-16 03:31:00,
2013-02-15 20:41:00,26.0,21.0,-100.00,SSW,213,1.0,4.0,82,0.00,,,-99.99,0.000000,,2013-02-16 03:41:00,
2013-02-15 20:52:00,27.0,22.0,-100.00,North,-999,-999.0,0.0,83,0.00,,,-99.99,0.000000,,2013-02-16 03:52:00,
2013-02-15 21:01:00,27.0,22.0,-100.00,SW,220,1.0,3.0,82,0.00,,,-99.99,0.000000,,2013-02-16 04:01:00,
2013-02-15 21:11:00,27.0,21.0,-100.00,SW,217,0.0,3.0,80,0.00,,,-99.99,0.000000,,2013-02-16 04:11:00,
2013-02-15 21:21:00,25.0,20.0,-100.00,North,-999,-999.0,0.0,82,0.00,,,-99.99,0.000000,,2013-02-16 04:21:00,
2013-02-15 21:31:00,26.0,21.0,-100.00,SW,225,0.0,3.0,81,0.00,,,-99.99,0.000000,,2013-02-16 04:31:00,
2013-02-15 21:41:00,26.0,21.0,-100.00,North,-999,-999.0,0.0,80,0.00,,,-99.99,0.000000,,2013-02-16 04:41:00,
2013-02-15 21:51:00,27.0,22.0,-100.00,South,183,1.0,3.0,81,0.00,,,-99.99,0.000000,,2013-02-16 04:51:00,
2013-02-15 22:01:00,25.0,20.0,-100.00,North,-999,-999.0,0.0,80,0.00,,,-99.99,0.000000,,2013-02-16 05:01:00,
2013-02-15 22:11:00,25.0,20.0,-100.00,North,-999,-999.0,0.0,81,0.00,,,-99.99,0.000000,,2013-02-16 05:11:00,
2013-02-15 22:21:00,24.0,19.0,-100.00,North,-999,-999.0,0.0,82,0.00,,,-99.99,0.000000,,2013-02-16 05:21:00,
2013-02-15 22:31:00,23.0,19.0,-100.00,North,-999,-999.0,0.0,82,0.00,,,-99.99,0.000000,,2013-02-16 05:31:00,
2013-02-15 22:42:00,23.0,19.0,-100.00,South,188,0.0,3.0,85,0.00,,,-99.99,0.000000,,2013-02-16 05:42:00,
2013-02-15 22:50:00,21.0,18.0,-100.00,North,-999,-999.0,0.0,88,0.00,,,-99.99,0.000000,,2013-02-16 05:50:00,
2013-02-15 22:52:00,23.0,19.0,-100.00,North,-999,-999.0,0.0,84,0.00,,,-99.99,0.000000,,2013-02-16 05:52:00,
2013-02-15 23:01:00,21.0,18.0,-100.00,North,-999,-999.0,0.0,86,0.00,,,-99.99,0.000000,,2013-02-16 06:01:00,
2013-02-15 23:11:00,21.0,18.0,-100.00,North,-999,-999.0,0.0,88,0.00,,,-99.99,0.000000,,2013-02-16 06:11:00,
2013-02-15 23:21:00,21.0,18.0,-100.00,North,-999,-999.0,0.0,88,0.00,,,-99.99,0.000000,,2013-02-16 06:21:00,
2013-02-15 23:32:00,21.0,18.0,-100.00,North,-999,-999.0,0.0,88,0.00,,,-99.99,0.000000,,2013-02-16 06:32:00,
2013-02-15 23:41:00,21.0,18.0,-100.00,North,-999,-999.0,0.0,88,0.00,,,-99.99,0.000000,,2013-02-16 06:41:00,